createdAt,value
2023-05-19T00:02:05.457Z,9.75
2023-05-19T00:04:33.582Z,9.70
2023-05-19T00:07:01.300Z,9.11
2023-05-19T00:09:28.820Z,9.73
2023-05-19T00:11:56.697Z,9.62
2023-05-19T00:14:23.699Z,9.64
2023-05-19T00:16:50.594Z,9.45
2023-05-19T00:19:17.630Z,9.56
2023-05-19T00:21:44.320Z,8.89
2023-05-19T00:24:10.966Z,9.53
2023-05-19T00:26:37.581Z,9.59
2023-05-19T00:29:05.604Z,9.54
2023-05-19T00:31:33.997Z,9.35
2023-05-19T00:34:01.043Z,9.38
2023-05-19T00:36:27.660Z,8.93
2023-05-19T00:38:55.947Z,8.89
2023-05-19T00:41:22.743Z,9.18
2023-05-19T00:43:50.688Z,8.80
2023-05-19T00:46:18.070Z,9.41
2023-05-19T00:48:45.562Z,9.25
2023-05-19T00:51:16.622Z,9.19
2023-05-19T00:53:48.591Z,9.33
2023-05-19T00:56:16.727Z,9.29
2023-05-19T00:58:44.186Z,9.26
2023-05-19T01:01:12.126Z,9.26
2023-05-19T01:03:40.741Z,8.99
2023-05-19T01:06:07.951Z,9.08
2023-05-19T01:08:37.172Z,9.10
2023-05-19T01:11:05.243Z,9.19
2023-05-19T01:13:32.093Z,7.80
2023-05-19T01:16:07.571Z,9.19
2023-05-19T01:19:11.254Z,9.15
2023-05-19T01:21:56.271Z,9.14
2023-05-19T01:24:30.445Z,9.12
2023-05-19T01:27:03.096Z,9.06
2023-05-19T01:29:32.526Z,9.03
2023-05-19T01:32:00.742Z,8.74
2023-05-19T01:34:27.924Z,8.50
2023-05-19T01:36:55.901Z,8.86
2023-05-19T01:39:24.667Z,8.91
2023-05-19T01:41:54.576Z,8.90
2023-05-19T01:44:22.884Z,8.92
2023-05-19T01:46:50.243Z,8.90
2023-05-19T01:49:16.930Z,8.74
2023-05-19T01:51:44.886Z,8.75
2023-05-19T01:54:11.468Z,8.77
2023-05-19T01:57:00.327Z,8.70
2023-05-19T01:59:54.350Z,8.70
2023-05-19T02:02:23.821Z,8.67
2023-05-19T02:04:59.796Z,8.35
2023-05-19T02:07:50.324Z,8.57
2023-05-19T02:10:24.234Z,8.61
2023-05-19T02:12:54.066Z,8.59
2023-05-19T02:15:29.734Z,8.54
2023-05-19T02:18:00.163Z,8.42
2023-05-19T02:20:26.828Z,8.57
2023-05-19T02:22:53.449Z,8.40
2023-05-19T02:25:20.023Z,8.51
2023-05-19T02:27:46.740Z,8.47
2023-05-19T02:30:13.364Z,8.34
2023-05-19T02:32:40.080Z,7.86
2023-05-19T02:35:07.146Z,8.38
2023-05-19T02:37:33.880Z,7.90
2023-05-19T02:40:00.477Z,8.18
2023-05-19T02:42:27.738Z,8.37
2023-05-19T02:44:55.068Z,8.38
2023-05-19T02:47:22.177Z,8.38
2023-05-19T02:49:48.851Z,8.27
2023-05-19T02:52:15.569Z,7.80
2023-05-19T02:54:42.541Z,8.29
2023-05-19T02:57:09.148Z,8.22
2023-05-19T02:59:36.553Z,8.28
2023-05-19T03:02:03.381Z,8.28
2023-05-19T03:04:30.102Z,7.67
2023-05-19T03:06:57.685Z,8.14
2023-05-19T03:09:24.541Z,8.16
2023-05-19T03:11:51.411Z,8.09
2023-05-19T03:14:18.614Z,8.22
2023-05-19T03:16:45.589Z,8.18
2023-05-19T03:19:12.795Z,7.65
2023-05-19T03:21:39.551Z,8.18
2023-05-19T03:24:07.042Z,8.11
2023-05-19T03:26:34.201Z,8.16
2023-05-19T03:29:01.137Z,8.05
2023-05-19T03:31:27.766Z,8.14
2023-05-19T03:33:54.483Z,8.05
2023-05-19T03:36:22.610Z,7.98
2023-05-19T03:38:49.617Z,7.80
2023-05-19T03:41:16.206Z,7.99
2023-05-19T03:43:42.789Z,8.04
2023-05-19T03:46:10.348Z,8.05
2023-05-19T03:48:55.529Z,7.58
2023-05-19T03:51:41.076Z,8.13
2023-05-19T03:54:22.492Z,8.03
2023-05-19T03:56:49.381Z,8.07
2023-05-19T03:59:16.246Z,7.92
2023-05-19T04:01:42.817Z,7.97
2023-05-19T04:04:09.448Z,8.14
2023-05-19T04:06:36.323Z,8.09
2023-05-19T04:09:05.012Z,8.14
2023-05-19T04:11:31.628Z,8.15
2023-05-19T04:13:58.251Z,8.26
2023-05-19T04:16:25.018Z,8.24
2023-05-19T04:18:51.849Z,8.14
2023-05-19T04:21:18.584Z,8.24
2023-05-19T04:23:45.214Z,8.33
2023-05-19T04:26:12.258Z,7.58
2023-05-19T04:28:42.254Z,7.82
2023-05-19T04:31:12.674Z,7.88
2023-05-19T04:33:39.833Z,8.07
2023-05-19T04:36:10.441Z,8.27
2023-05-19T04:38:42.864Z,8.58
2023-05-19T04:41:12.005Z,8.45
2023-05-19T04:43:41.795Z,8.36
2023-05-19T04:46:13.228Z,8.55
2023-05-19T04:48:41.361Z,8.59
2023-05-19T04:51:08.194Z,8.58
2023-05-19T04:53:34.945Z,8.11
2023-05-19T04:56:02.209Z,8.68
2023-05-19T04:58:30.772Z,8.68
2023-05-19T05:01:00.300Z,8.78
2023-05-19T05:03:28.106Z,8.69
2023-05-19T05:05:56.709Z,8.79
2023-05-19T05:08:23.414Z,8.61
2023-05-19T05:10:52.472Z,8.82
2023-05-19T05:13:22.510Z,8.88
2023-05-19T05:15:52.078Z,8.94
2023-05-19T05:18:19.231Z,8.59
2023-05-19T05:20:46.857Z,9.10
2023-05-19T05:23:14.574Z,9.14
2023-05-19T05:25:44.337Z,9.23
2023-05-19T05:28:12.052Z,9.11
2023-05-19T05:30:38.809Z,9.29
2023-05-19T05:33:07.201Z,9.32
2023-05-19T05:35:37.657Z,9.30
2023-05-19T05:38:06.470Z,8.91
2023-05-19T05:40:33.673Z,9.64
2023-05-19T05:43:00.282Z,9.88
2023-05-19T05:45:30.763Z,10.32
2023-05-19T05:47:59.591Z,10.64
2023-05-19T05:50:26.678Z,11.11
2023-05-19T05:52:55.944Z,11.49
2023-05-19T05:55:24.171Z,11.79
2023-05-19T05:57:51.742Z,12.08
2023-05-19T06:00:19.089Z,12.46
2023-05-19T06:02:51.632Z,12.62
2023-05-19T06:05:19.589Z,13.25
2023-05-19T06:07:47.369Z,13.54
2023-05-19T06:10:19.282Z,13.56
2023-05-19T06:12:46.903Z,13.67
2023-05-19T06:15:13.751Z,13.83
2023-05-19T06:17:59.523Z,14.29
2023-05-19T06:20:26.310Z,14.50
2023-05-19T06:22:53.034Z,14.39
2023-05-19T06:25:21.516Z,14.68
2023-05-19T06:27:48.072Z,14.73
2023-05-19T06:30:16.616Z,15.08
2023-05-19T06:32:56.505Z,15.10
2023-05-19T06:35:25.358Z,15.20
2023-05-19T06:37:53.069Z,15.32
2023-05-19T06:40:20.368Z,15.18
2023-05-19T06:42:47.358Z,15.23
2023-05-19T06:45:16.612Z,15.13
2023-05-19T06:47:44.482Z,15.26
2023-05-19T06:50:11.501Z,15.46
2023-05-19T06:52:41.273Z,15.45
2023-05-19T06:55:08.170Z,15.91
2023-05-19T06:57:37.068Z,16.41
2023-05-19T07:00:05.758Z,16.56
2023-05-19T07:02:32.373Z,16.72
2023-05-19T07:04:59.066Z,16.68
2023-05-19T07:07:26.691Z,17.38
2023-05-19T07:09:55.079Z,17.40
2023-05-19T07:12:21.784Z,17.55
2023-05-19T07:14:48.460Z,17.75
2023-05-19T07:17:16.779Z,17.38
2023-05-19T07:19:45.223Z,17.91
2023-05-19T07:22:11.817Z,17.97
2023-05-19T07:24:38.679Z,17.77
2023-05-19T07:27:05.662Z,17.70
2023-05-19T07:29:32.232Z,17.46
2023-05-19T07:31:58.834Z,17.82
2023-05-19T07:34:25.457Z,17.93
2023-05-19T07:36:52.287Z,18.02
2023-05-19T07:39:19.380Z,17.85
2023-05-19T07:41:52.472Z,18.06
2023-05-19T07:44:19.266Z,18.15
2023-05-19T07:46:46.005Z,17.96
2023-05-19T07:49:12.589Z,18.57
2023-05-19T07:51:39.161Z,18.69
2023-05-19T07:54:05.838Z,19.25
2023-05-19T07:56:32.403Z,19.65
2023-05-19T07:58:58.965Z,19.79
2023-05-19T08:01:26.135Z,19.88
2023-05-19T08:03:53.192Z,20.10
2023-05-19T08:06:19.808Z,20.07
2023-05-19T08:08:47.235Z,20.31
2023-05-19T08:11:13.858Z,20.50
2023-05-19T08:13:40.442Z,20.73
2023-05-19T08:16:07.295Z,21.26
2023-05-19T08:18:33.945Z,21.33
2023-05-19T08:21:01.353Z,21.50
2023-05-19T08:23:27.987Z,21.66
2023-05-19T08:25:54.579Z,21.63
2023-05-19T08:28:21.344Z,22.05
2023-05-19T08:30:48.065Z,21.93
2023-05-19T08:33:14.711Z,22.34
2023-05-19T08:35:41.402Z,21.98
2023-05-19T08:38:07.995Z,22.67
2023-05-19T08:40:37.831Z,22.47
2023-05-19T08:43:04.606Z,22.51
2023-05-19T08:45:34.387Z,22.65
2023-05-19T08:48:01.341Z,22.85
2023-05-19T08:50:36.626Z,22.65
2023-05-19T08:53:32.478Z,22.97
2023-05-19T08:56:14.258Z,22.70
2023-05-19T08:58:43.596Z,23.32
2023-05-19T09:01:14.109Z,23.32
2023-05-19T09:03:41.412Z,23.49
2023-05-19T09:06:08.899Z,23.30
2023-05-19T09:08:36.562Z,23.10
2023-05-19T09:11:03.245Z,23.21
2023-05-19T09:13:29.969Z,23.37
2023-05-19T09:15:57.936Z,23.76
2023-05-19T09:18:28.894Z,23.26
2023-05-19T09:21:03.144Z,23.83
2023-05-19T09:23:35.494Z,23.85
2023-05-19T09:26:05.035Z,23.58
2023-05-19T09:28:35.424Z,23.69
2023-05-19T09:31:06.233Z,23.42
2023-05-19T09:33:35.010Z,23.18
2023-05-19T09:36:03.056Z,23.57
2023-05-19T09:38:29.798Z,23.99
2023-05-19T09:40:57.995Z,24.28
2023-05-19T09:43:27.273Z,24.40
2023-05-19T09:46:15.704Z,24.56
2023-05-19T09:48:42.504Z,24.53
2023-05-19T09:51:12.242Z,24.33
2023-05-19T09:53:39.171Z,24.36
2023-05-19T09:56:08.744Z,24.20
2023-05-19T09:58:36.337Z,24.01
2023-05-19T10:01:06.687Z,23.83
2023-05-19T10:03:34.382Z,23.28
2023-05-19T10:06:01.390Z,22.69
2023-05-19T10:08:30.521Z,23.23
2023-05-19T10:10:58.283Z,22.99
2023-05-19T10:13:25.856Z,23.14
2023-05-19T10:15:58.780Z,23.22
2023-05-19T10:18:27.476Z,23.45
2023-05-19T10:20:54.364Z,23.86
2023-05-19T10:23:22.275Z,24.87
2023-05-19T10:25:50.920Z,24.55
2023-05-19T10:28:21.327Z,25.36
2023-05-19T10:30:50.845Z,25.15
2023-05-19T10:33:19.988Z,25.47
2023-05-19T10:36:08.923Z,25.93
2023-05-19T10:38:50.133Z,25.87
2023-05-19T10:41:46.878Z,26.63
2023-05-19T10:44:35.296Z,26.87
2023-05-19T10:47:02.115Z,27.45
2023-05-19T10:49:28.914Z,26.82
2023-05-19T10:51:58.422Z,26.68
2023-05-19T10:54:43.420Z,27.01
2023-05-19T10:57:14.629Z,27.23
2023-05-19T10:59:41.983Z,27.43
2023-05-19T11:02:09.091Z,26.92
2023-05-19T11:04:49.585Z,26.86
2023-05-19T11:07:19.989Z,27.48
2023-05-19T11:09:53.462Z,27.83
2023-05-19T11:12:25.250Z,28.19
2023-05-19T11:14:55.482Z,28.09
2023-05-19T11:17:25.583Z,28.16
2023-05-19T11:19:55.810Z,28.03
2023-05-19T11:22:26.903Z,28.40
2023-05-19T11:24:56.958Z,28.18
2023-05-19T11:27:32.669Z,28.29
2023-05-19T11:30:09.540Z,28.92
2023-05-19T11:32:39.406Z,28.96
2023-05-19T11:35:07.803Z,29.05
2023-05-19T11:37:35.024Z,29.59
2023-05-19T11:40:03.386Z,29.33
2023-05-19T11:42:31.297Z,29.76
2023-05-19T11:44:57.921Z,29.69
2023-05-19T11:47:24.640Z,29.76
2023-05-19T11:49:57.765Z,29.28
2023-05-19T11:52:25.501Z,29.97
2023-05-19T11:54:52.382Z,30.11
2023-05-19T11:57:20.998Z,30.55
2023-05-19T11:59:49.586Z,30.56
2023-05-19T12:02:27.422Z,30.84
2023-05-19T12:04:54.696Z,31.06
2023-05-19T12:07:25.983Z,31.01
2023-05-19T12:09:52.905Z,30.91
2023-05-19T12:12:21.348Z,29.97
2023-05-19T12:14:51.027Z,30.79
2023-05-19T12:17:23.840Z,30.73
2023-05-19T12:19:51.161Z,30.76
2023-05-19T12:22:18.204Z,29.42
2023-05-19T12:24:46.303Z,30.01
2023-05-19T12:27:18.308Z,30.84
2023-05-19T12:29:50.595Z,30.94
2023-05-19T12:32:17.485Z,31.26
2023-05-19T12:34:44.187Z,31.62
2023-05-19T12:37:11.276Z,31.68
2023-05-19T12:39:40.605Z,31.60
2023-05-19T12:42:11.275Z,31.23
2023-05-19T12:44:39.443Z,31.61
2023-05-19T12:47:07.149Z,32.24
2023-05-19T12:49:34.549Z,31.96
2023-05-19T12:52:10.472Z,32.15
2023-05-19T12:54:40.409Z,28.93
2023-05-19T12:57:07.280Z,29.76
2023-05-19T12:59:38.813Z,30.73
2023-05-19T13:02:06.489Z,30.62
2023-05-19T13:04:33.235Z,31.07
2023-05-19T13:06:59.826Z,31.43
2023-05-19T13:09:27.806Z,31.96
2023-05-19T13:11:54.728Z,31.77
2023-05-19T13:14:22.162Z,31.93
2023-05-19T13:16:48.899Z,31.49
2023-05-19T13:19:25.347Z,31.20
2023-05-19T13:21:52.462Z,31.33
2023-05-19T13:24:19.100Z,31.05
2023-05-19T13:26:45.932Z,31.06
2023-05-19T13:29:12.580Z,30.70
2023-05-19T13:31:39.225Z,30.68
2023-05-19T13:34:05.753Z,30.83
2023-05-19T13:36:36.476Z,31.06
2023-05-19T13:39:03.415Z,30.75
2023-05-19T13:41:30.289Z,30.46
2023-05-19T13:43:59.252Z,28.87
2023-05-19T13:46:36.717Z,29.15
2023-05-19T13:49:10.398Z,30.12
2023-05-19T13:51:37.631Z,30.51
2023-05-19T13:54:05.022Z,30.61
2023-05-19T13:56:31.833Z,31.12
2023-05-19T13:58:58.494Z,30.44
2023-05-19T14:01:25.484Z,30.09
2023-05-19T14:03:52.561Z,30.75
2023-05-19T14:06:19.668Z,30.94
2023-05-19T14:08:46.578Z,31.41
2023-05-19T14:11:21.421Z,30.96
2023-05-19T14:13:52.921Z,30.62
2023-05-19T14:16:21.919Z,30.79
2023-05-19T14:18:49.156Z,30.41
2023-05-19T14:21:15.877Z,31.33
2023-05-19T14:23:42.574Z,31.11
2023-05-19T14:26:09.172Z,30.43
2023-05-19T14:28:35.743Z,30.62
2023-05-19T14:31:02.343Z,31.02
2023-05-19T14:33:32.777Z,31.62
2023-05-19T14:36:01.683Z,32.19
2023-05-19T14:38:29.417Z,32.22
2023-05-19T14:40:56.594Z,31.75
2023-05-19T14:43:23.348Z,31.25
2023-05-19T14:45:49.982Z,31.94
2023-05-19T14:48:19.454Z,31.88
2023-05-19T14:50:49.165Z,30.52
2023-05-19T14:53:16.563Z,29.36
2023-05-19T14:55:43.685Z,30.73
2023-05-19T14:58:23.592Z,31.73
2023-05-19T15:00:54.653Z,32.61
2023-05-19T15:03:23.098Z,32.80
2023-05-19T15:05:49.739Z,32.73
2023-05-19T15:08:16.619Z,32.61
2023-05-19T15:10:43.362Z,32.86
2023-05-19T15:13:10.351Z,31.88
2023-05-19T15:15:36.887Z,29.91
2023-05-19T15:18:03.596Z,28.22
2023-05-19T15:20:30.237Z,29.38
2023-05-19T15:22:56.865Z,30.53
2023-05-19T15:25:23.434Z,30.11
2023-05-19T15:27:50.090Z,30.66
2023-05-19T15:30:16.681Z,30.99
2023-05-19T15:32:43.373Z,31.25
2023-05-19T15:35:10.060Z,31.80
2023-05-19T15:37:36.696Z,32.26
2023-05-19T15:40:04.446Z,31.98
2023-05-19T15:42:31.135Z,31.74
2023-05-19T15:44:57.718Z,32.01
2023-05-19T15:47:24.327Z,32.49
2023-05-19T15:49:50.997Z,32.09
2023-05-19T15:52:17.672Z,31.90
2023-05-19T15:54:44.586Z,31.97
2023-05-19T15:57:11.182Z,31.33
2023-05-19T15:59:37.836Z,30.89
2023-05-19T16:02:04.614Z,30.20
2023-05-19T16:04:31.317Z,29.77
2023-05-19T16:06:57.982Z,30.43
2023-05-19T16:09:24.593Z,30.28
2023-05-19T16:11:51.303Z,29.93
2023-05-19T16:14:20.127Z,29.86
2023-05-19T16:16:46.736Z,30.53
2023-05-19T16:19:13.396Z,30.59
2023-05-19T16:21:40.092Z,29.76
2023-05-19T16:24:06.844Z,29.26
2023-05-19T16:26:34.374Z,29.30
2023-05-19T16:29:00.984Z,28.17
2023-05-19T16:31:27.724Z,27.26
2023-05-19T16:33:54.336Z,25.96
2023-05-19T16:36:22.722Z,25.64
2023-05-19T16:38:49.344Z,24.91
2023-05-19T16:41:15.966Z,24.79
2023-05-19T16:43:42.639Z,24.26
2023-05-19T16:46:11.967Z,23.85
2023-05-19T16:48:38.667Z,23.38
2023-05-19T16:51:05.343Z,22.95
2023-05-19T16:53:32.041Z,22.61
2023-05-19T16:56:01.877Z,22.81
2023-05-19T16:58:29.600Z,22.70
2023-05-19T17:00:57.779Z,22.73
2023-05-19T17:03:24.658Z,23.04
2023-05-19T17:05:52.398Z,22.46
2023-05-19T17:08:18.985Z,22.01
2023-05-19T17:10:47.602Z,21.91
2023-05-19T17:13:14.228Z,21.23
2023-05-19T17:15:43.019Z,21.34
2023-05-19T17:18:12.453Z,21.76
2023-05-19T17:20:39.267Z,21.93
2023-05-19T17:23:05.986Z,21.79
2023-05-19T17:25:32.945Z,21.55
2023-05-19T17:27:59.580Z,21.60
2023-05-19T17:30:26.513Z,22.05
2023-05-19T17:32:53.220Z,21.74
2023-05-19T17:35:19.958Z,21.64
2023-05-19T17:37:46.567Z,21.43
2023-05-19T17:40:13.559Z,21.56
2023-05-19T17:42:40.252Z,21.55
2023-05-19T17:45:07.570Z,21.13
2023-05-19T17:47:34.402Z,20.11
2023-05-19T17:50:01.075Z,20.17
2023-05-19T17:52:27.926Z,19.82
2023-05-19T17:54:54.697Z,20.00
2023-05-19T17:57:25.293Z,19.90
2023-05-19T17:59:52.252Z,19.90
2023-05-19T18:02:19.253Z,20.30
2023-05-19T18:04:46.376Z,20.41
2023-05-19T18:07:14.171Z,20.27
2023-05-19T18:09:47.731Z,20.30
2023-05-19T18:12:14.347Z,20.32
2023-05-19T18:14:40.924Z,19.95
2023-05-19T18:17:07.564Z,20.51
2023-05-19T18:19:34.099Z,20.42
2023-05-19T18:22:01.212Z,20.36
2023-05-19T18:24:27.788Z,20.57
2023-05-19T18:26:54.333Z,20.48
2023-05-19T18:29:20.918Z,20.29
2023-05-19T18:31:47.663Z,19.46
2023-05-19T18:34:14.300Z,19.81
2023-05-19T18:36:41.203Z,19.35
2023-05-19T18:39:07.811Z,19.52
2023-05-19T18:41:34.467Z,19.07
2023-05-19T18:44:01.176Z,19.18
2023-05-19T18:46:27.964Z,18.96
2023-05-19T18:48:54.646Z,18.74
2023-05-19T18:51:21.774Z,18.41
2023-05-19T18:53:51.335Z,17.47
2023-05-19T18:56:25.019Z,17.81
2023-05-19T18:58:52.237Z,17.72
2023-05-19T19:01:18.852Z,17.55
2023-05-19T19:03:46.933Z,17.38
2023-05-19T19:06:13.576Z,17.22
2023-05-19T19:08:40.169Z,17.00
2023-05-19T19:11:09.304Z,16.07
2023-05-19T19:13:36.211Z,15.92
2023-05-19T19:16:03.020Z,16.56
2023-05-19T19:18:29.756Z,15.73
2023-05-19T19:20:57.570Z,16.18
2023-05-19T19:23:24.468Z,16.16
2023-05-19T19:25:51.219Z,15.84
2023-05-19T19:28:17.912Z,15.65
2023-05-19T19:30:45.768Z,15.32
2023-05-19T19:33:12.372Z,15.58
2023-05-19T19:35:38.985Z,15.41
2023-05-19T19:38:05.624Z,14.91
2023-05-19T19:40:32.745Z,15.35
2023-05-19T19:42:59.863Z,15.10
2023-05-19T19:45:26.478Z,14.57
2023-05-19T19:47:53.496Z,14.48
2023-05-19T19:50:20.124Z,14.82
2023-05-19T19:52:46.706Z,14.45
2023-05-19T19:55:13.446Z,14.61
2023-05-19T19:57:40.040Z,14.58
2023-05-19T20:00:09.948Z,14.51
2023-05-19T20:02:45.611Z,14.43
2023-05-19T20:05:22.346Z,14.36
2023-05-19T20:07:48.935Z,14.17
2023-05-19T20:10:15.859Z,14.10
2023-05-19T20:12:43.442Z,14.13
2023-05-19T20:15:10.822Z,13.99
2023-05-19T20:17:37.465Z,13.95
2023-05-19T20:20:09.712Z,13.83
2023-05-19T20:22:36.509Z,13.76
2023-05-19T20:25:03.176Z,13.73
2023-05-19T20:27:29.793Z,13.66
2023-05-19T20:29:56.684Z,13.75
2023-05-19T20:32:23.339Z,13.80
2023-05-19T20:34:50.077Z,13.76
2023-05-19T20:37:17.360Z,13.90
2023-05-19T20:39:43.921Z,13.83
2023-05-19T20:42:11.234Z,13.91
2023-05-19T20:44:37.877Z,13.87
2023-05-19T20:47:04.740Z,13.83
2023-05-19T20:49:31.355Z,14.01
2023-05-19T20:51:57.999Z,13.40
2023-05-19T20:54:24.641Z,14.02
2023-05-19T20:56:51.780Z,14.17
2023-05-19T20:59:18.395Z,13.60
2023-05-19T21:01:45.955Z,14.03
2023-05-19T21:04:12.654Z,13.97
2023-05-19T21:06:39.414Z,13.90
2023-05-19T21:09:06.816Z,14.00
2023-05-19T21:11:34.254Z,14.11
2023-05-19T21:14:04.040Z,14.03
2023-05-19T21:16:31.343Z,13.65
2023-05-19T21:18:58.424Z,13.92
2023-05-19T21:21:25.654Z,13.87
2023-05-19T21:23:52.266Z,14.00
2023-05-19T21:26:18.812Z,13.95
2023-05-19T21:28:45.572Z,13.99
2023-05-19T21:31:12.413Z,13.90
2023-05-19T21:33:39.043Z,13.93
2023-05-19T21:36:05.910Z,13.88
2023-05-19T21:38:32.518Z,13.80
2023-05-19T21:40:59.080Z,13.43
2023-05-19T21:43:25.979Z,13.47
2023-05-19T21:45:52.700Z,14.05
2023-05-19T21:48:19.428Z,13.58
2023-05-19T21:50:46.094Z,13.99
2023-05-19T21:53:12.721Z,14.06
2023-05-19T21:55:39.402Z,14.04
2023-05-19T21:58:06.171Z,13.95
2023-05-19T22:00:33.055Z,13.55
2023-05-19T22:03:00.042Z,14.03
2023-05-19T22:05:28.953Z,13.59
2023-05-19T22:07:55.756Z,13.99
2023-05-19T22:10:22.395Z,14.10
2023-05-19T22:12:48.977Z,14.11
2023-05-19T22:15:15.875Z,14.04
2023-05-19T22:17:42.555Z,14.02
2023-05-19T22:20:09.510Z,13.96
2023-05-19T22:22:36.383Z,14.09
2023-05-19T22:25:03.786Z,13.68
2023-05-19T22:27:30.670Z,14.03
2023-05-19T22:29:57.314Z,13.94
2023-05-19T22:32:24.020Z,14.08
2023-05-19T22:34:50.815Z,13.94
2023-05-19T22:37:17.527Z,13.56
2023-05-19T22:39:44.269Z,13.94
2023-05-19T22:42:11.044Z,13.96
2023-05-19T22:44:37.622Z,13.91
2023-05-19T22:47:04.405Z,13.95
2023-05-19T22:49:31.079Z,13.95
2023-05-19T22:51:57.701Z,13.90
2023-05-19T22:54:24.298Z,13.71
2023-05-19T22:56:50.879Z,13.78
2023-05-19T22:59:18.015Z,13.81
2023-05-19T23:01:46.711Z,13.78
2023-05-19T23:04:14.067Z,13.31
2023-05-19T23:06:40.972Z,13.21
2023-05-19T23:09:07.985Z,13.68
2023-05-19T23:11:35.823Z,13.71
2023-05-19T23:14:02.594Z,13.65
2023-05-19T23:16:29.229Z,13.65
2023-05-19T23:18:55.936Z,13.49
2023-05-19T23:21:22.623Z,13.59
2023-05-19T23:23:49.801Z,13.48
2023-05-19T23:26:16.486Z,13.44
2023-05-19T23:28:43.438Z,13.36
2023-05-19T23:31:10.259Z,13.47
2023-05-19T23:33:36.970Z,13.35
2023-05-19T23:36:08.753Z,13.43
2023-05-19T23:38:36.569Z,12.69
2023-05-19T23:41:04.021Z,13.18
2023-05-19T23:43:32.342Z,13.28
2023-05-19T23:45:59.606Z,13.18
2023-05-19T23:48:28.293Z,13.23
2023-05-19T23:50:54.882Z,12.89
2023-05-19T23:53:21.592Z,13.01
2023-05-19T23:55:48.244Z,13.00
2023-05-19T23:58:15.929Z,12.93
